Route Details

Aircraft Information
Group: European Fleet
Types: A30F, A31F, B738
Route Data
Distance: 1669nm
Duration: 4h 09m
Origin METAR: EDDK 011120Z AUTO 30012KT 9999 SHRA SCT026 BKN046 FEW///CB 16/12 Q1006 TEMPO 26015G25KT SHRA
Dest. METAR: LLBG 011120Z 28011KT CAVOK 32/20 Q1014 NOSIG
Freight Data
(for Oct 1, 2022)
Load Factor:
0%
Manifested Cargo: 0lbs
Financial History
Total Freight: 256,082lbs
Average Load: 0lbs/flt
Fuel Used: 199,101lbs
Avg. Fuel Used: 0lbs/flt
Fuel Expense: $117,856
Avg. Fuel Expense: $0
Avg. Fuel Cost: $0/lbs
Total Gross Income: $574,816
Pilot Pay: $1,225
Total Expenses: $80,308
Total Revenue: $369,780
Average Revenue: $0

Capitol Logistics 978




EDDK
Cologne Bonn Airport
Cologne, DE
LLBG
Ben Gurion International Airport
Tel-aviv, IL